الصفحة الرئيسية
METAR-TAF:

METAR-TAF

مطار :

مطار الخرطوم الدولي

الخرطوم, السودان

دائرة عرض: 15-36N, خط طول: 032-33E, ارتفاع: 382 متر

مراقبة الطقس الحالي

تاريخ ووقت الإصدار 14 دقيقة قبل الساعة 20:00UTC
ريح 7 عقدة من الجنوب
درجة الحرارة 28°درجة مئوية
الرطوبة 74%
ضغط 1012 hPa
الرؤية 10 كم أو أكثر
غيوم متفرقة على ارتفاع 5000 قدم

METAR: HSSS 162000Z 17007KT 9999 SCT050 28/23 Q1012 NOSIG

زمن: 23:14 (20:14 UTC)

توقعات

تاريخ ووقت الإصدار 3ساعات و 14 دقيقة قبل الساعة 17:00UTC
التوقعات صالحة من16 الساعة 18 UTC إلى 17 الساعة 24 UTC
ريح 8 عقدة من الغرب/الجنوب الغربي تتزايد حتى 20 عقدة
الرؤية 10 كم أو أكثر
غيوم متفرقة على ارتفاع 4000 قدم
غيوم مفككة على ارتفاع 14000 قدم
نظرية الاحتمالات 30%
من 16 الساعة 20 UTC إلى 16 الساعة 24 UTC
الرؤية: 6000 متر
غيوم مفككة على ارتفاع 14000 قدم
زخات من المطر

TAF: HSSS 161700Z 1618/1724 24008G20KT 9999 SCT040 BKN140 PROB30 1620/1624 6000 SHRA BKN140

أرصاد الطقس والتوقعات من أكثر من 4000 مطار (تقارير الطقس للمطار METAR والتنبؤ بالطقس بالمطارTAF).

المحطات المتاحة هي النقط الصفراء والحمراء على الخريطة.

حرك المؤشر فوق النقطة لمعرفة اسم المحطة.

ثم انقر لمعرفة أرصاد وتوقعات الطقس.

لتغيير الخارطة: اضغط على الأزرار الخضراء مع رمز الصليب الأسود للتكبير. على الزر الأخضر مع شرطة للتصغير، أو على الأسهم الخضراء للخرائط المجاورة.


METAR-TAF: